Hlavní strana
METAR-TAF:

METAR-TAF

Letiště :

Mo i Rana, Norsko

zeměpisná šířka: 66-22N, zeměpisná délka: 014-18E, výška: 7 m

Aktuální stav počasí

Zpráva byla vytvořena před 15 minutami, v 18:50 UTC
Východoseverovýchodní vítr 21 kt s nárazy do 34 kt, proměnlivý mezi severovýchodním a východojihovýchodním
Teplota -8°C
Vlhkost vzduchu 57%
Tlak 988 hPa
Viditelnost 10 km a více
Oblačno až skoro zataženo ve výšce 3800 ft

METAR: ENRA 221850Z 07021G34KT 050V110 9999 BKN038 M08/M15 Q0988

Čas: 20:05 (19:05 UTC)

Předpověď počasí

Zpráva byla vytvořena před 2 hodinami a 5 minutami, v 17:00 UTC
Předpověď platná od 22 v 18 UTC do 22 v 22 UTC
Východní vítr 25 kt s nárazy do 40 kt
Viditelnost 10 km a více
Oblačno až skoro zataženo ve výšce 3500 ft
Změna
od 22 v 20 UTC do 22 v 22 UTC
Východní vítr 15 kt s nárazy do 25 kt

TAF: ENRA 221700Z 2218/2222 09025G40KT 9999 BKN035 BECMG 2220/2222 09015G25KT

Stav a předpovědi počasí z více než 4 000 letišť (zprávy METAR a TAF).

Červené a žluté tečky na mapě představují dostupné meteorologické stanice.

Když kurzor umístíte na tečku, zobrazí se název stanice.

Pak kliknutím zobrazíte stav a předpověď počasí.

Chcete-li změnit mapu, kliknutím na zelené tlačítko se znaménkem +mapu přiblížíte, kliknutím na zelené tlačítko se znaménkem – mapu oddálíte a kliknutím na zelené šipky přejdete na sousední mapy.


METAR-TAF: